Terminal Aerodrome Forecast
Issued by NWS Charleston, WV

Current Version | Previous Version | Graphics & Text | Print | Product List | Glossary On
Versions: 1 2 3 4 5 6 7 8 9 10 11 12 13 14 15 16 17 18 19 20 21
000
FTUS41 KRLX 222300 RRA
TAFEKN
TAF
KEKN 222344Z 2300/2324 00000KT P6SM BKN060
     FM230200 00000KT P6SM SCT070
     FM231600 VRB03KT P6SM BKN070
     FM231900 16007KT P6SM BKN110
     FM232300 15008KT 6SM -SHRA BKN080=

USA.gov is the U.S. government's official web portal to all federal, state and local government web resources and services.